Hlavní strana
METAR-TAF:

METAR-TAF

Letiště :

Kuvajt, Kuvajt

zeměpisná šířka: 29-13N, zeměpisná délka: 047-59E, výška: 55 m

Aktuální stav počasí

Zpráva byla vytvořena před 41 minutami, v 03:00 UTC
Jihovýchodní vítr 7 kt
Teplota 11°C
Vlhkost vzduchu 62%
Tlak 1015 hPa
Viditelnost: 6000 m

METAR: OKBK 230300Z 14007KT 6000 NSC 11/04 Q1015 NOSIG

Čas: 06:41 (03:41 UTC)

Předpověď počasí

Zpráva byla vytvořena před 16 hodinami a 56 minutami, v 10:45 UTC
Předpověď platná od 22 v 12 UTC do 23 v 18 UTC
vítr z různých směrů 3 kt
Viditelnost: 6000 m
Změna
od 22 v 13 UTC do 22 v 15 UTC
Jihojihovýchodní vítr 10 kt

TAF: OKBK 221045Z 2212/2318 VRB03KT 6000 NSC BECMG 2213/2215 15010KT

Stav a předpovědi počasí z více než 4 000 letišť (zprávy METAR a TAF).

Červené a žluté tečky na mapě představují dostupné meteorologické stanice.

Když kurzor umístíte na tečku, zobrazí se název stanice.

Pak kliknutím zobrazíte stav a předpověď počasí.

Chcete-li změnit mapu, kliknutím na zelené tlačítko se znaménkem +mapu přiblížíte, kliknutím na zelené tlačítko se znaménkem – mapu oddálíte a kliknutím na zelené šipky přejdete na sousední mapy.


METAR-TAF: